sensor_id;sensor_type;location;lat;lon;timestamp;P1;durP1;ratioP1;P2;durP2;ratioP2
72156;SDS011;60035;52.122;5.406;2023-07-13T00:31:18;6.85;;;1.48;;
72156;SDS011;60035;52.122;5.406;2023-07-13T00:33:46;7.50;;;1.40;;
72156;SDS011;60035;52.122;5.406;2023-07-13T00:36:13;6.25;;;1.17;;
72156;SDS011;60035;52.122;5.406;2023-07-13T00:38:40;7.00;;;1.45;;
72156;SDS011;60035;52.122;5.406;2023-07-13T00:41:08;6.80;;;1.27;;
72156;SDS011;60035;52.122;5.406;2023-07-13T00:43:35;8.35;;;1.30;;
72156;SDS011;60035;52.122;5.406;2023-07-13T00:48:29;5.18;;;1.27;;
72156;SDS011;60035;52.122;5.406;2023-07-13T00:51:01;10.20;;;1.48;;
72156;SDS011;60035;52.122;5.406;2023-07-13T00:53:29;6.38;;;1.40;;
72156;SDS011;60035;52.122;5.406;2023-07-13T00:55:58;8.30;;;1.95;;
72156;SDS011;60035;52.122;5.406;2023-07-13T00:58:25;5.20;;;1.15;;
72156;SDS011;60035;52.122;5.406;2023-07-13T01:00:53;6.28;;;1.50;;
72156;SDS011;60035;52.122;5.406;2023-07-13T01:03:20;6.88;;;1.10;;
72156;SDS011;60035;52.122;5.406;2023-07-13T01:05:48;8.77;;;1.10;;
72156;SDS011;60035;52.122;5.406;2023-07-13T01:08:16;8.55;;;1.38;;
72156;SDS011;60035;52.122;5.406;2023-07-13T01:10:56;8.55;;;1.42;;
72156;SDS011;60035;52.122;5.406;2023-07-13T01:13:24;9.38;;;1.58;;
72156;SDS011;60035;52.122;5.406;2023-07-13T01:15:52;8.70;;;1.60;;
72156;SDS011;60035;52.122;5.406;2023-07-13T01:28:25;9.10;;;1.27;;
72156;SDS011;60035;52.122;5.406;2023-07-13T01:30:54;5.53;;;1.30;;
72156;SDS011;60035;52.122;5.406;2023-07-13T01:52:02;5.72;;;1.42;;
72156;SDS011;60035;52.122;5.406;2023-07-13T01:54:28;8.63;;;1.52;;
72156;SDS011;60035;52.122;5.406;2023-07-13T02:00:43;7.10;;;1.58;;
72156;SDS011;60035;52.122;5.406;2023-07-13T02:03:09;7.82;;;1.77;;
72156;SDS011;60035;52.122;5.406;2023-07-13T02:05:36;8.50;;;1.48;;
72156;SDS011;60035;52.122;5.406;2023-07-13T02:08:04;5.97;;;1.42;;
72156;SDS011;60035;52.122;5.406;2023-07-13T02:10:31;4.90;;;1.48;;
72156;SDS011;60035;52.122;5.406;2023-07-13T02:16:41;6.88;;;1.20;;
72156;SDS011;60035;52.122;5.406;2023-07-13T02:19:10;7.93;;;1.60;;
72156;SDS011;60035;52.122;5.406;2023-07-13T02:21:36;8.13;;;1.52;;
72156;SDS011;60035;52.122;5.406;2023-07-13T02:24:05;10.88;;;2.03;;
72156;SDS011;60035;52.122;5.406;2023-07-13T02:26:32;9.77;;;1.52;;
72156;SDS011;60035;52.122;5.406;2023-07-13T02:29:01;9.18;;;1.42;;
72156;SDS011;60035;52.122;5.406;2023-07-13T02:31:27;7.72;;;1.80;;
72156;SDS011;60035;52.122;5.406;2023-07-13T02:33:54;8.35;;;1.70;;
72156;SDS011;60035;52.122;5.406;2023-07-13T02:36:21;6.20;;;1.65;;
72156;SDS011;60035;52.122;5.406;2023-07-13T02:38:49;7.65;;;1.70;;
72156;SDS011;60035;52.122;5.406;2023-07-13T02:41:16;10.68;;;2.03;;
72156;SDS011;60035;52.122;5.406;2023-07-13T02:43:43;9.35;;;2.15;;
72156;SDS011;60035;52.122;5.406;2023-07-13T02:46:09;9.73;;;1.70;;
72156;SDS011;60035;52.122;5.406;2023-07-13T02:48:37;5.35;;;1.52;;
72156;SDS011;60035;52.122;5.406;2023-07-13T02:51:05;9.82;;;1.55;;
72156;SDS011;60035;52.122;5.406;2023-07-13T02:53:34;8.25;;;1.60;;
72156;SDS011;60035;52.122;5.406;2023-07-13T02:56:22;8.88;;;1.95;;
72156;SDS011;60035;52.122;5.406;2023-07-13T02:58:51;11.50;;;2.33;;
72156;SDS011;60035;52.122;5.406;2023-07-13T03:01:18;8.20;;;1.98;;
72156;SDS011;60035;52.122;5.406;2023-07-13T03:03:46;8.50;;;1.77;;
72156;SDS011;60035;52.122;5.406;2023-07-13T03:06:16;12.05;;;2.15;;
72156;SDS011;60035;52.122;5.406;2023-07-13T03:08:44;8.35;;;1.90;;
72156;SDS011;60035;52.122;5.406;2023-07-13T03:14:58;13.30;;;2.40;;
72156;SDS011;60035;52.122;5.406;2023-07-13T03:23:45;10.63;;;2.28;;
72156;SDS011;60035;52.122;5.406;2023-07-13T03:26:16;10.02;;;2.20;;
72156;SDS011;60035;52.122;5.406;2023-07-13T03:28:45;9.75;;;2.33;;
72156;SDS011;60035;52.122;5.406;2023-07-13T03:31:14;11.65;;;2.40;;
72156;SDS011;60035;52.122;5.406;2023-07-13T03:33:46;12.82;;;2.60;;
72156;SDS011;60035;52.122;5.406;2023-07-13T03:36:18;10.05;;;2.00;;
72156;SDS011;60035;52.122;5.406;2023-07-13T03:38:47;8.75;;;2.53;;
72156;SDS011;60035;52.122;5.406;2023-07-13T03:41:16;12.48;;;2.25;;
72156;SDS011;60035;52.122;5.406;2023-07-13T03:43:43;9.07;;;2.25;;
72156;SDS011;60035;52.122;5.406;2023-07-13T03:46:09;11.13;;;2.22;;
72156;SDS011;60035;52.122;5.406;2023-07-13T03:48:37;11.75;;;2.33;;
72156;SDS011;60035;52.122;5.406;2023-07-13T03:51:06;9.13;;;2.10;;
72156;SDS011;60035;52.122;5.406;2023-07-13T03:53:32;11.27;;;2.22;;
72156;SDS011;60035;52.122;5.406;2023-07-13T03:56:00;11.65;;;2.90;;
72156;SDS011;60035;52.122;5.406;2023-07-13T03:58:31;10.60;;;2.30;;
72156;SDS011;60035;52.122;5.406;2023-07-13T04:01:06;9.77;;;2.30;;
72156;SDS011;60035;52.122;5.406;2023-07-13T04:03:34;6.90;;;2.20;;
72156;SDS011;60035;52.122;5.406;2023-07-13T04:06:05;11.02;;;2.40;;
72156;SDS011;60035;52.122;5.406;2023-07-13T04:08:36;10.50;;;2.20;;
72156;SDS011;60035;52.122;5.406;2023-07-13T04:11:03;8.57;;;2.28;;
72156;SDS011;60035;52.122;5.406;2023-07-13T04:13:30;9.98;;;2.17;;
72156;SDS011;60035;52.122;5.406;2023-07-13T04:15:57;12.60;;;2.53;;
72156;SDS011;60035;52.122;5.406;2023-07-13T04:18:26;8.70;;;2.50;;
72156;SDS011;60035;52.122;5.406;2023-07-13T04:20:53;13.50;;;2.72;;
72156;SDS011;60035;52.122;5.406;2023-07-13T04:23:20;9.07;;;2.47;;
72156;SDS011;60035;52.122;5.406;2023-07-13T04:29:33;10.30;;;2.33;;
72156;SDS011;60035;52.122;5.406;2023-07-13T04:36:42;11.05;;;2.70;;
72156;SDS011;60035;52.122;5.406;2023-07-13T04:39:12;9.38;;;2.47;;
72156;SDS011;60035;52.122;5.406;2023-07-13T04:41:41;12.68;;;2.33;;
72156;SDS011;60035;52.122;5.406;2023-07-13T04:44:07;10.23;;;2.70;;
72156;SDS011;60035;52.122;5.406;2023-07-13T04:46:36;12.30;;;2.92;;
72156;SDS011;60035;52.122;5.406;2023-07-13T04:49:04;11.82;;;2.90;;
72156;SDS011;60035;52.122;5.406;2023-07-13T04:51:30;13.95;;;3.30;;
72156;SDS011;60035;52.122;5.406;2023-07-13T04:53:57;11.65;;;2.85;;
72156;SDS011;60035;52.122;5.406;2023-07-13T04:56:36;13.10;;;3.13;;
72156;SDS011;60035;52.122;5.406;2023-07-13T04:59:02;11.60;;;2.97;;
72156;SDS011;60035;52.122;5.406;2023-07-13T05:01:36;15.07;;;2.88;;
72156;SDS011;60035;52.122;5.406;2023-07-13T05:04:03;12.77;;;3.15;;
72156;SDS011;60035;52.122;5.406;2023-07-13T05:06:30;17.52;;;3.38;;
72156;SDS011;60035;52.122;5.406;2023-07-13T05:08:57;11.07;;;3.22;;
72156;SDS011;60035;52.122;5.406;2023-07-13T05:11:24;15.80;;;3.40;;
72156;SDS011;60035;52.122;5.406;2023-07-13T05:13:50;14.27;;;3.45;;
72156;SDS011;60035;52.122;5.406;2023-07-13T05:16:17;14.82;;;3.13;;
72156;SDS011;60035;52.122;5.406;2023-07-13T05:18:45;15.40;;;3.10;;
72156;SDS011;60035;52.122;5.406;2023-07-13T05:21:11;10.95;;;2.97;;
72156;SDS011;60035;52.122;5.406;2023-07-13T05:23:39;16.42;;;4.05;;
72156;SDS011;60035;52.122;5.406;2023-07-13T05:26:08;13.80;;;3.90;;
72156;SDS011;60035;52.122;5.406;2023-07-13T05:28:35;18.85;;;3.75;;
72156;SDS011;60035;52.122;5.406;2023-07-13T05:31:02;13.98;;;3.40;;
72156;SDS011;60035;52.122;5.406;2023-07-13T05:33:39;14.07;;;3.55;;
72156;SDS011;60035;52.122;5.406;2023-07-13T05:36:06;16.42;;;4.47;;
72156;SDS011;60035;52.122;5.406;2023-07-13T05:38:33;18.20;;;4.38;;
72156;SDS011;60035;52.122;5.406;2023-07-13T05:41:00;12.65;;;4.28;;
72156;SDS011;60035;52.122;5.406;2023-07-13T05:43:31;18.48;;;4.68;;
72156;SDS011;60035;52.122;5.406;2023-07-13T05:46:07;16.08;;;4.85;;
72156;SDS011;60035;52.122;5.406;2023-07-13T05:48:34;17.67;;;4.93;;
72156;SDS011;60035;52.122;5.406;2023-07-13T05:51:01;13.90;;;5.80;;
72156;SDS011;60035;52.122;5.406;2023-07-13T05:53:28;16.40;;;5.55;;
72156;SDS011;60035;52.122;5.406;2023-07-13T05:55:54;21.85;;;6.40;;
72156;SDS011;60035;52.122;5.406;2023-07-13T05:58:30;15.45;;;5.10;;
72156;SDS011;60035;52.122;5.406;2023-07-13T06:01:06;18.50;;;5.45;;
72156;SDS011;60035;52.122;5.406;2023-07-13T06:03:38;19.58;;;6.63;;
72156;SDS011;60035;52.122;5.406;2023-07-13T06:06:05;16.98;;;5.22;;
72156;SDS011;60035;52.122;5.406;2023-07-13T06:08:32;18.63;;;5.75;;
72156;SDS011;60035;52.122;5.406;2023-07-13T06:11:13;21.75;;;6.15;;
72156;SDS011;60035;52.122;5.406;2023-07-13T06:13:42;13.88;;;5.00;;
72156;SDS011;60035;52.122;5.406;2023-07-13T06:16:08;15.50;;;5.80;;
72156;SDS011;60035;52.122;5.406;2023-07-13T06:18:36;19.55;;;5.43;;
72156;SDS011;60035;52.122;5.406;2023-07-13T06:21:07;19.83;;;6.43;;
72156;SDS011;60035;52.122;5.406;2023-07-13T06:23:36;14.18;;;5.65;;
72156;SDS011;60035;52.122;5.406;2023-07-13T06:26:03;21.13;;;7.18;;
72156;SDS011;60035;52.122;5.406;2023-07-13T06:28:34;18.67;;;6.82;;
72156;SDS011;60035;52.122;5.406;2023-07-13T06:31:04;21.58;;;6.55;;
72156;SDS011;60035;52.122;5.406;2023-07-13T06:33:36;18.88;;;6.18;;
72156;SDS011;60035;52.122;5.406;2023-07-13T06:36:03;16.25;;;6.30;;
72156;SDS011;60035;52.122;5.406;2023-07-13T06:38:34;18.02;;;6.40;;
72156;SDS011;60035;52.122;5.406;2023-07-13T06:41:01;19.85;;;6.85;;
72156;SDS011;60035;52.122;5.406;2023-07-13T06:43:29;20.70;;;6.82;;
72156;SDS011;60035;52.122;5.406;2023-07-13T06:45:58;17.60;;;6.53;;
72156;SDS011;60035;52.122;5.406;2023-07-13T06:48:26;17.70;;;6.88;;
72156;SDS011;60035;52.122;5.406;2023-07-13T06:50:53;21.00;;;6.53;;
72156;SDS011;60035;52.122;5.406;2023-07-13T06:53:19;18.17;;;6.47;;
72156;SDS011;60035;52.122;5.406;2023-07-13T06:55:47;22.50;;;7.57;;
72156;SDS011;60035;52.122;5.406;2023-07-13T06:58:15;21.02;;;7.55;;
72156;SDS011;60035;52.122;5.406;2023-07-13T07:00:42;19.05;;;6.35;;
72156;SDS011;60035;52.122;5.406;2023-07-13T07:03:09;17.75;;;6.80;;
72156;SDS011;60035;52.122;5.406;2023-07-13T07:05:36;20.58;;;7.25;;
72156;SDS011;60035;52.122;5.406;2023-07-13T07:08:03;21.25;;;7.45;;
72156;SDS011;60035;52.122;5.406;2023-07-13T07:10:30;20.40;;;8.00;;
72156;SDS011;60035;52.122;5.406;2023-07-13T07:12:57;16.55;;;6.85;;
72156;SDS011;60035;52.122;5.406;2023-07-13T07:15:25;20.17;;;6.97;;
72156;SDS011;60035;52.122;5.406;2023-07-13T07:17:54;20.75;;;7.07;;
72156;SDS011;60035;52.122;5.406;2023-07-13T07:20:21;19.25;;;6.95;;
72156;SDS011;60035;52.122;5.406;2023-07-13T07:22:48;20.88;;;7.63;;
72156;SDS011;60035;52.122;5.406;2023-07-13T07:25:15;19.10;;;7.15;;
72156;SDS011;60035;52.122;5.406;2023-07-13T07:27:42;18.55;;;7.32;;
72156;SDS011;60035;52.122;5.406;2023-07-13T07:30:12;22.73;;;8.95;;
72156;SDS011;60035;52.122;5.406;2023-07-13T07:32:41;24.20;;;8.13;;
72156;SDS011;60035;52.122;5.406;2023-07-13T07:35:23;20.05;;;8.23;;
72156;SDS011;60035;52.122;5.406;2023-07-13T07:37:50;17.67;;;7.50;;
72156;SDS011;60035;52.122;5.406;2023-07-13T07:40:17;18.90;;;8.35;;
72156;SDS011;60035;52.122;5.406;2023-07-13T07:42:47;23.45;;;7.72;;
72156;SDS011;60035;52.122;5.406;2023-07-13T07:45:14;18.80;;;7.60;;
72156;SDS011;60035;52.122;5.406;2023-07-13T07:47:42;18.88;;;7.57;;
72156;SDS011;60035;52.122;5.406;2023-07-13T07:50:09;19.45;;;7.50;;
72156;SDS011;60035;52.122;5.406;2023-07-13T07:52:36;19.35;;;7.50;;
72156;SDS011;60035;52.122;5.406;2023-07-13T07:55:03;19.23;;;7.88;;
72156;SDS011;60035;52.122;5.406;2023-07-13T07:57:36;21.25;;;8.32;;
72156;SDS011;60035;52.122;5.406;2023-07-13T08:00:11;17.08;;;7.47;;
72156;SDS011;60035;52.122;5.406;2023-07-13T08:02:44;19.17;;;7.65;;
72156;SDS011;60035;52.122;5.406;2023-07-13T08:05:14;16.33;;;7.57;;
72156;SDS011;60035;52.122;5.406;2023-07-13T08:07:49;22.80;;;7.82;;
72156;SDS011;60035;52.122;5.406;2023-07-13T08:10:15;17.58;;;6.97;;
72156;SDS011;60035;52.122;5.406;2023-07-13T08:12:42;20.77;;;7.45;;
72156;SDS011;60035;52.122;5.406;2023-07-13T08:15:29;17.90;;;6.93;;
72156;SDS011;60035;52.122;5.406;2023-07-13T08:17:55;18.30;;;7.50;;
72156;SDS011;60035;52.122;5.406;2023-07-13T08:20:23;17.60;;;6.45;;
72156;SDS011;60035;52.122;5.406;2023-07-13T08:22:50;17.70;;;7.13;;
72156;SDS011;60035;52.122;5.406;2023-07-13T08:25:17;16.98;;;6.38;;
72156;SDS011;60035;52.122;5.406;2023-07-13T08:27:48;15.95;;;5.80;;
72156;SDS011;60035;52.122;5.406;2023-07-13T08:30:15;12.55;;;5.68;;
72156;SDS011;60035;52.122;5.406;2023-07-13T08:32:44;13.90;;;6.18;;
72156;SDS011;60035;52.122;5.406;2023-07-13T08:35:13;13.18;;;5.38;;
72156;SDS011;60035;52.122;5.406;2023-07-13T08:37:40;16.85;;;5.65;;
72156;SDS011;60035;52.122;5.406;2023-07-13T08:40:08;15.45;;;5.18;;
72156;SDS011;60035;52.122;5.406;2023-07-13T08:42:37;12.05;;;4.53;;
72156;SDS011;60035;52.122;5.406;2023-07-13T08:48:08;11.13;;;3.70;;
72156;SDS011;60035;52.122;5.406;2023-07-13T08:50:54;9.10;;;2.85;;
72156;SDS011;60035;52.122;5.406;2023-07-13T08:53:37;9.15;;;2.50;;
72156;SDS011;60035;52.122;5.406;2023-07-13T08:56:09;7.22;;;2.10;;
72156;SDS011;60035;52.122;5.406;2023-07-13T08:58:39;7.55;;;2.40;;
72156;SDS011;60035;52.122;5.406;2023-07-13T09:01:54;7.22;;;2.10;;
72156;SDS011;60035;52.122;5.406;2023-07-13T09:04:20;5.20;;;1.90;;
72156;SDS011;60035;52.122;5.406;2023-07-13T09:09:25;6.75;;;2.03;;
72156;SDS011;60035;52.122;5.406;2023-07-13T09:14:52;7.82;;;2.60;;
72156;SDS011;60035;52.122;5.406;2023-07-13T09:17:24;9.55;;;3.00;;
72156;SDS011;60035;52.122;5.406;2023-07-13T09:20:14;7.90;;;2.38;;
72156;SDS011;60035;52.122;5.406;2023-07-13T09:22:59;10.13;;;2.50;;
72156;SDS011;60035;52.122;5.406;2023-07-13T09:25:30;9.77;;;2.67;;
72156;SDS011;60035;52.122;5.406;2023-07-13T09:28:10;8.63;;;2.63;;
72156;SDS011;60035;52.122;5.406;2023-07-13T09:33:31;11.25;;;2.45;;
72156;SDS011;60035;52.122;5.406;2023-07-13T09:35:59;11.80;;;2.35;;
72156;SDS011;60035;52.122;5.406;2023-07-13T09:38:29;10.10;;;2.60;;
72156;SDS011;60035;52.122;5.406;2023-07-13T09:46:57;5.97;;;2.08;;
72156;SDS011;60035;52.122;5.406;2023-07-13T09:49:25;8.40;;;2.38;;
72156;SDS011;60035;52.122;5.406;2023-07-13T09:52:05;8.07;;;2.25;;
72156;SDS011;60035;52.122;5.406;2023-07-13T09:54:36;8.02;;;2.30;;
72156;SDS011;60035;52.122;5.406;2023-07-13T09:57:12;11.02;;;2.70;;
72156;SDS011;60035;52.122;5.406;2023-07-13T09:59:41;9.27;;;3.25;;
72156;SDS011;60035;52.122;5.406;2023-07-13T10:05:01;7.75;;;3.05;;
72156;SDS011;60035;52.122;5.406;2023-07-13T10:07:31;8.05;;;3.33;;
72156;SDS011;60035;52.122;5.406;2023-07-13T10:09:59;11.30;;;3.47;;
72156;SDS011;60035;52.122;5.406;2023-07-13T10:12:28;8.75;;;3.30;;
72156;SDS011;60035;52.122;5.406;2023-07-13T10:14:58;7.05;;;3.40;;
72156;SDS011;60035;52.122;5.406;2023-07-13T10:17:47;10.07;;;3.28;;
72156;SDS011;60035;52.122;5.406;2023-07-13T10:20:15;9.00;;;3.60;;
72156;SDS011;60035;52.122;5.406;2023-07-13T10:25:25;8.63;;;3.00;;
72156;SDS011;60035;52.122;5.406;2023-07-13T10:27:53;7.68;;;3.00;;
72156;SDS011;60035;52.122;5.406;2023-07-13T10:30:26;8.52;;;3.10;;
72156;SDS011;60035;52.122;5.406;2023-07-13T10:32:57;9.13;;;3.10;;
72156;SDS011;60035;52.122;5.406;2023-07-13T10:35:27;7.53;;;2.85;;
72156;SDS011;60035;52.122;5.406;2023-07-13T10:38:01;10.82;;;3.53;;
72156;SDS011;60035;52.122;5.406;2023-07-13T10:40:39;7.60;;;3.00;;
72156;SDS011;60035;52.122;5.406;2023-07-13T10:43:14;9.20;;;3.20;;
72156;SDS011;60035;52.122;5.406;2023-07-13T10:45:46;7.72;;;2.30;;
72156;SDS011;60035;52.122;5.406;2023-07-13T10:48:17;7.00;;;2.63;;
72156;SDS011;60035;52.122;5.406;2023-07-13T10:50:46;8.18;;;2.47;;
72156;SDS011;60035;52.122;5.406;2023-07-13T10:53:27;7.25;;;2.38;;
72156;SDS011;60035;52.122;5.406;2023-07-13T10:56:00;5.50;;;2.40;;
72156;SDS011;60035;52.122;5.406;2023-07-13T10:58:40;6.88;;;2.63;;
72156;SDS011;60035;52.122;5.406;2023-07-13T11:01:17;8.10;;;2.60;;
72156;SDS011;60035;52.122;5.406;2023-07-13T11:09:03;5.28;;;1.65;;
72156;SDS011;60035;52.122;5.406;2023-07-13T11:11:56;3.75;;;1.60;;
72156;SDS011;60035;52.122;5.406;2023-07-13T11:20:10;6.75;;;2.28;;
72156;SDS011;60035;52.122;5.406;2023-07-13T11:22:51;6.18;;;2.45;;
72156;SDS011;60035;52.122;5.406;2023-07-13T11:25:33;6.97;;;2.35;;
72156;SDS011;60035;52.122;5.406;2023-07-13T11:30:37;9.25;;;2.85;;
72156;SDS011;60035;52.122;5.406;2023-07-13T11:35:42;6.65;;;2.35;;
72156;SDS011;60035;52.122;5.406;2023-07-13T11:38:16;7.57;;;2.50;;
72156;SDS011;60035;52.122;5.406;2023-07-13T11:41:05;6.97;;;2.10;;
72156;SDS011;60035;52.122;5.406;2023-07-13T11:43:40;8.25;;;2.60;;
72156;SDS011;60035;52.122;5.406;2023-07-13T11:46:20;7.10;;;2.45;;
72156;SDS011;60035;52.122;5.406;2023-07-13T11:48:49;7.65;;;2.20;;
72156;SDS011;60035;52.122;5.406;2023-07-13T11:51:20;6.30;;;2.28;;
72156;SDS011;60035;52.122;5.406;2023-07-13T11:53:52;6.55;;;2.78;;
72156;SDS011;60035;52.122;5.406;2023-07-13T11:56:23;7.38;;;2.63;;
72156;SDS011;60035;52.122;5.406;2023-07-13T11:58:52;7.18;;;2.60;;
72156;SDS011;60035;52.122;5.406;2023-07-13T12:01:22;7.72;;;2.70;;
72156;SDS011;60035;52.122;5.406;2023-07-13T12:03:52;6.05;;;2.60;;
72156;SDS011;60035;52.122;5.406;2023-07-13T12:06:30;7.75;;;2.90;;
72156;SDS011;60035;52.122;5.406;2023-07-13T12:09:08;7.22;;;2.75;;
72156;SDS011;60035;52.122;5.406;2023-07-13T12:11:46;8.15;;;2.90;;
72156;SDS011;60035;52.122;5.406;2023-07-13T12:14:13;9.35;;;2.72;;
72156;SDS011;60035;52.122;5.406;2023-07-13T12:16:41;11.38;;;3.15;;
72156;SDS011;60035;52.122;5.406;2023-07-13T12:19:27;8.77;;;3.00;;
72156;SDS011;60035;52.122;5.406;2023-07-13T12:21:55;8.10;;;3.05;;
72156;SDS011;60035;52.122;5.406;2023-07-13T12:24:24;8.68;;;3.00;;
72156;SDS011;60035;52.122;5.406;2023-07-13T12:26:53;9.43;;;3.03;;
72156;SDS011;60035;52.122;5.406;2023-07-13T12:29:28;10.73;;;3.10;;
72156;SDS011;60035;52.122;5.406;2023-07-13T12:31:55;12.27;;;2.88;;
72156;SDS011;60035;52.122;5.406;2023-07-13T12:34:23;6.40;;;2.50;;
72156;SDS011;60035;52.122;5.406;2023-07-13T12:36:55;9.27;;;2.75;;
72156;SDS011;60035;52.122;5.406;2023-07-13T12:39:34;7.97;;;2.38;;
72156;SDS011;60035;52.122;5.406;2023-07-13T12:42:13;8.43;;;2.03;;
72156;SDS011;60035;52.122;5.406;2023-07-13T12:44:52;7.88;;;2.20;;
72156;SDS011;60035;52.122;5.406;2023-07-13T12:47:20;6.85;;;2.08;;
72156;SDS011;60035;52.122;5.406;2023-07-13T12:49:48;6.35;;;2.30;;
72156;SDS011;60035;52.122;5.406;2023-07-13T12:52:19;7.80;;;2.13;;
72156;SDS011;60035;52.122;5.406;2023-07-13T12:54:54;7.05;;;1.85;;
72156;SDS011;60035;52.122;5.406;2023-07-13T12:57:32;8.40;;;2.55;;
72156;SDS011;60035;52.122;5.406;2023-07-13T13:00:09;6.80;;;2.40;;
72156;SDS011;60035;52.122;5.406;2023-07-13T13:05:13;8.27;;;2.30;;
72156;SDS011;60035;52.122;5.406;2023-07-13T13:07:41;7.05;;;2.10;;
72156;SDS011;60035;52.122;5.406;2023-07-13T13:10:12;5.50;;;1.98;;
72156;SDS011;60035;52.122;5.406;2023-07-13T13:12:40;7.15;;;1.98;;
72156;SDS011;60035;52.122;5.406;2023-07-13T13:15:10;8.00;;;2.45;;
72156;SDS011;60035;52.122;5.406;2023-07-13T13:17:40;6.55;;;2.22;;
72156;SDS011;60035;52.122;5.406;2023-07-13T13:20:17;9.88;;;2.40;;
72156;SDS011;60035;52.122;5.406;2023-07-13T13:22:46;7.57;;;2.00;;
72156;SDS011;60035;52.122;5.406;2023-07-13T13:25:14;6.45;;;2.05;;
72156;SDS011;60035;52.122;5.406;2023-07-13T13:27:42;7.07;;;2.58;;
72156;SDS011;60035;52.122;5.406;2023-07-13T13:32:39;6.65;;;1.83;;
72156;SDS011;60035;52.122;5.406;2023-07-13T13:35:13;6.68;;;2.10;;
72156;SDS011;60035;52.122;5.406;2023-07-13T13:37:41;9.50;;;2.13;;
72156;SDS011;60035;52.122;5.406;2023-07-13T13:40:15;7.78;;;2.13;;
72156;SDS011;60035;52.122;5.406;2023-07-13T13:42:43;8.13;;;2.05;;
72156;SDS011;60035;52.122;5.406;2023-07-13T13:45:10;5.13;;;1.95;;
72156;SDS011;60035;52.122;5.406;2023-07-13T13:47:39;10.20;;;2.13;;
72156;SDS011;60035;52.122;5.406;2023-07-13T13:50:13;6.47;;;2.30;;
72156;SDS011;60035;52.122;5.406;2023-07-13T13:52:41;6.10;;;1.85;;
72156;SDS011;60035;52.122;5.406;2023-07-13T13:55:15;7.53;;;1.90;;
72156;SDS011;60035;52.122;5.406;2023-07-13T13:57:49;7.75;;;1.92;;
72156;SDS011;60035;52.122;5.406;2023-07-13T14:00:16;4.72;;;2.00;;
72156;SDS011;60035;52.122;5.406;2023-07-13T14:02:47;4.13;;;1.80;;
72156;SDS011;60035;52.122;5.406;2023-07-13T14:05:26;7.97;;;2.28;;
72156;SDS011;60035;52.122;5.406;2023-07-13T14:07:53;4.57;;;1.95;;
72156;SDS011;60035;52.122;5.406;2023-07-13T14:10:20;6.13;;;1.95;;
72156;SDS011;60035;52.122;5.406;2023-07-13T14:12:48;5.95;;;2.03;;
72156;SDS011;60035;52.122;5.406;2023-07-13T14:17:49;6.95;;;1.98;;
72156;SDS011;60035;52.122;5.406;2023-07-13T14:20:17;6.90;;;2.20;;
72156;SDS011;60035;52.122;5.406;2023-07-13T14:22:45;7.80;;;2.10;;
72156;SDS011;60035;52.122;5.406;2023-07-13T14:25:13;6.28;;;2.00;;
72156;SDS011;60035;52.122;5.406;2023-07-13T14:27:41;5.82;;;2.13;;
72156;SDS011;60035;52.122;5.406;2023-07-13T14:30:13;8.00;;;2.13;;
72156;SDS011;60035;52.122;5.406;2023-07-13T14:32:41;6.80;;;2.10;;
72156;SDS011;60035;52.122;5.406;2023-07-13T14:35:10;7.93;;;2.20;;
72156;SDS011;60035;52.122;5.406;2023-07-13T14:37:39;5.88;;;1.80;;
72156;SDS011;60035;52.122;5.406;2023-07-13T14:40:16;9.13;;;2.05;;
72156;SDS011;60035;52.122;5.406;2023-07-13T14:42:48;7.68;;;1.88;;
72156;SDS011;60035;52.122;5.406;2023-07-13T14:45:15;6.03;;;2.17;;
72156;SDS011;60035;52.122;5.406;2023-07-13T14:47:43;8.05;;;2.05;;
72156;SDS011;60035;52.122;5.406;2023-07-13T14:50:15;6.20;;;1.75;;
72156;SDS011;60035;52.122;5.406;2023-07-13T14:52:47;6.95;;;1.70;;
72156;SDS011;60035;52.122;5.406;2023-07-13T14:55:15;7.45;;;2.00;;
72156;SDS011;60035;52.122;5.406;2023-07-13T14:57:44;5.25;;;1.50;;
72156;SDS011;60035;52.122;5.406;2023-07-13T15:00:13;6.95;;;1.98;;
72156;SDS011;60035;52.122;5.406;2023-07-13T15:02:42;5.65;;;1.85;;
72156;SDS011;60035;52.122;5.406;2023-07-13T15:05:15;5.93;;;1.88;;
72156;SDS011;60035;52.122;5.406;2023-07-13T15:07:44;4.30;;;1.67;;
72156;SDS011;60035;52.122;5.406;2023-07-13T15:13:14;4.95;;;1.63;;
72156;SDS011;60035;52.122;5.406;2023-07-13T15:15:41;5.43;;;1.73;;
72156;SDS011;60035;52.122;5.406;2023-07-13T15:18:11;4.40;;;1.63;;
72156;SDS011;60035;52.122;5.406;2023-07-13T15:20:40;6.93;;;1.95;;
72156;SDS011;60035;52.122;5.406;2023-07-13T15:23:13;6.25;;;1.70;;
72156;SDS011;60035;52.122;5.406;2023-07-13T15:25:42;4.05;;;1.50;;
72156;SDS011;60035;52.122;5.406;2023-07-13T15:28:12;5.18;;;1.77;;
72156;SDS011;60035;52.122;5.406;2023-07-13T15:30:44;5.80;;;1.70;;
72156;SDS011;60035;52.122;5.406;2023-07-13T15:33:15;6.82;;;1.73;;
72156;SDS011;60035;52.122;5.406;2023-07-13T15:35:45;6.80;;;1.70;;
72156;SDS011;60035;52.122;5.406;2023-07-13T15:38:16;6.38;;;1.80;;
72156;SDS011;60035;52.122;5.406;2023-07-13T15:40:48;4.60;;;1.63;;
72156;SDS011;60035;52.122;5.406;2023-07-13T15:43:16;7.80;;;1.90;;
72156;SDS011;60035;52.122;5.406;2023-07-13T15:45:44;5.85;;;1.73;;
72156;SDS011;60035;52.122;5.406;2023-07-13T15:48:19;6.30;;;2.13;;
72156;SDS011;60035;52.122;5.406;2023-07-13T15:50:51;5.75;;;1.80;;
72156;SDS011;60035;52.122;5.406;2023-07-13T15:53:20;5.55;;;1.52;;
72156;SDS011;60035;52.122;5.406;2023-07-13T15:55:50;5.40;;;1.58;;
72156;SDS011;60035;52.122;5.406;2023-07-13T15:58:18;4.85;;;1.55;;
72156;SDS011;60035;52.122;5.406;2023-07-13T16:00:50;7.25;;;1.58;;
72156;SDS011;60035;52.122;5.406;2023-07-13T16:03:18;4.32;;;1.42;;
72156;SDS011;60035;52.122;5.406;2023-07-13T16:05:46;4.13;;;1.27;;
72156;SDS011;60035;52.122;5.406;2023-07-13T16:10:49;5.95;;;1.65;;
72156;SDS011;60035;52.122;5.406;2023-07-13T16:13:16;5.57;;;1.70;;
72156;SDS011;60035;52.122;5.406;2023-07-13T16:15:45;4.78;;;1.48;;
72156;SDS011;60035;52.122;5.406;2023-07-13T16:18:13;4.20;;;1.45;;
72156;SDS011;60035;52.122;5.406;2023-07-13T16:20:46;4.10;;;1.48;;
72156;SDS011;60035;52.122;5.406;2023-07-13T16:23:15;6.30;;;1.50;;
72156;SDS011;60035;52.122;5.406;2023-07-13T16:25:43;5.28;;;1.40;;
72156;SDS011;60035;52.122;5.406;2023-07-13T16:28:11;6.00;;;1.40;;
72156;SDS011;60035;52.122;5.406;2023-07-13T16:30:38;4.30;;;1.40;;
72156;SDS011;60035;52.122;5.406;2023-07-13T16:33:05;3.63;;;1.40;;
72156;SDS011;60035;52.122;5.406;2023-07-13T16:35:34;5.68;;;1.33;;
72156;SDS011;60035;52.122;5.406;2023-07-13T16:38:03;4.45;;;1.20;;
72156;SDS011;60035;52.122;5.406;2023-07-13T16:40:40;4.28;;;1.38;;
72156;SDS011;60035;52.122;5.406;2023-07-13T16:43:14;3.38;;;1.33;;
72156;SDS011;60035;52.122;5.406;2023-07-13T16:45:46;5.43;;;1.60;;
72156;SDS011;60035;52.122;5.406;2023-07-13T16:48:19;2.50;;;0.95;;
72156;SDS011;60035;52.122;5.406;2023-07-13T16:50:52;3.97;;;1.17;;
72156;SDS011;60035;52.122;5.406;2023-07-13T16:55:50;4.47;;;1.55;;
72156;SDS011;60035;52.122;5.406;2023-07-13T16:58:17;6.28;;;1.65;;
72156;SDS011;60035;52.122;5.406;2023-07-13T17:00:44;4.82;;;1.40;;
72156;SDS011;60035;52.122;5.406;2023-07-13T17:03:10;4.90;;;1.30;;
72156;SDS011;60035;52.122;5.406;2023-07-13T17:05:39;4.75;;;1.30;;
72156;SDS011;60035;52.122;5.406;2023-07-13T17:08:14;3.70;;;1.00;;
72156;SDS011;60035;52.122;5.406;2023-07-13T17:10:55;2.55;;;1.10;;
72156;SDS011;60035;52.122;5.406;2023-07-13T17:13:27;5.45;;;1.35;;
72156;SDS011;60035;52.122;5.406;2023-07-13T17:15:55;6.72;;;1.25;;
72156;SDS011;60035;52.122;5.406;2023-07-13T17:18:27;3.42;;;1.17;;
72156;SDS011;60035;52.122;5.406;2023-07-13T17:21:06;5.30;;;1.23;;
72156;SDS011;60035;52.122;5.406;2023-07-13T17:23:35;2.53;;;0.98;;